sensor_id;sensor_type;location;lat;lon;timestamp;P1;durP1;ratioP1;P2;durP2;ratioP2
24159;SDS011;62385;41.594;23.808;2024-02-28T00:01:26;0.90;;;0.60;;
24159;SDS011;62385;41.594;23.808;2024-02-28T00:03:51;0.40;;;0.40;;
24159;SDS011;62385;41.594;23.808;2024-02-28T00:06:17;0.40;;;0.40;;
24159;SDS011;62385;41.594;23.808;2024-02-28T00:08:42;1.13;;;0.77;;
24159;SDS011;62385;41.594;23.808;2024-02-28T00:11:08;1.10;;;0.97;;
24159;SDS011;62385;41.594;23.808;2024-02-28T00:13:34;1.70;;;0.33;;
24159;SDS011;62385;41.594;23.808;2024-02-28T00:16:00;0.47;;;0.33;;
24159;SDS011;62385;41.594;23.808;2024-02-28T00:18:26;1.70;;;0.67;;
24159;SDS011;62385;41.594;23.808;2024-02-28T00:20:51;0.40;;;0.30;;
24159;SDS011;62385;41.594;23.808;2024-02-28T00:23:17;0.20;;;0.10;;
24159;SDS011;62385;41.594;23.808;2024-02-28T00:25:42;1.23;;;0.40;;
24159;SDS011;62385;41.594;23.808;2024-02-28T00:28:09;0.27;;;0.20;;
24159;SDS011;62385;41.594;23.808;2024-02-28T00:30:34;0.20;;;0.10;;
24159;SDS011;62385;41.594;23.808;2024-02-28T00:33:00;0.20;;;0.00;;
24159;SDS011;62385;41.594;23.808;2024-02-28T00:35:26;0.20;;;0.10;;
24159;SDS011;62385;41.594;23.808;2024-02-28T00:37:52;0.83;;;0.50;;
24159;SDS011;62385;41.594;23.808;2024-02-28T00:40:17;0.77;;;0.73;;
24159;SDS011;62385;41.594;23.808;2024-02-28T00:42:44;1.70;;;0.33;;
24159;SDS011;62385;41.594;23.808;2024-02-28T00:45:10;0.40;;;0.37;;
24159;SDS011;62385;41.594;23.808;2024-02-28T00:47:36;0.20;;;0.00;;
24159;SDS011;62385;41.594;23.808;2024-02-28T00:50:01;0.83;;;0.73;;
24159;SDS011;62385;41.594;23.808;2024-02-28T00:52:28;0.70;;;0.70;;
24159;SDS011;62385;41.594;23.808;2024-02-28T00:54:55;1.13;;;0.40;;
24159;SDS011;62385;41.594;23.808;2024-02-28T00:57:21;0.20;;;0.10;;
24159;SDS011;62385;41.594;23.808;2024-02-28T00:59:47;0.20;;;0.10;;
24159;SDS011;62385;41.594;23.808;2024-02-28T01:02:12;0.73;;;0.47;;
24159;SDS011;62385;41.594;23.808;2024-02-28T01:04:39;0.57;;;0.50;;
24159;SDS011;62385;41.594;23.808;2024-02-28T01:07:05;2.13;;;0.77;;
24159;SDS011;62385;41.594;23.808;2024-02-28T01:09:31;1.03;;;0.97;;
24159;SDS011;62385;41.594;23.808;2024-02-28T01:11:56;0.20;;;0.10;;
24159;SDS011;62385;41.594;23.808;2024-02-28T01:14:22;0.20;;;0.07;;
24159;SDS011;62385;41.594;23.808;2024-02-28T01:16:48;1.13;;;0.33;;
24159;SDS011;62385;41.594;23.808;2024-02-28T01:19:15;1.20;;;1.17;;
24159;SDS011;62385;41.594;23.808;2024-02-28T01:21:41;0.20;;;0.00;;
24159;SDS011;62385;41.594;23.808;2024-02-28T01:24:07;0.40;;;0.40;;
24159;SDS011;62385;41.594;23.808;2024-02-28T01:26:32;0.50;;;0.20;;
24159;SDS011;62385;41.594;23.808;2024-02-28T01:28:58;0.73;;;0.73;;
24159;SDS011;62385;41.594;23.808;2024-02-28T01:31:24;0.60;;;0.60;;
24159;SDS011;62385;41.594;23.808;2024-02-28T01:33:50;1.23;;;1.17;;
24159;SDS011;62385;41.594;23.808;2024-02-28T01:36:15;0.67;;;0.40;;
24159;SDS011;62385;41.594;23.808;2024-02-28T01:38:41;3.07;;;1.10;;
24159;SDS011;62385;41.594;23.808;2024-02-28T01:41:07;0.20;;;0.10;;
24159;SDS011;62385;41.594;23.808;2024-02-28T01:43:33;1.70;;;0.43;;
24159;SDS011;62385;41.594;23.808;2024-02-28T01:45:59;0.40;;;0.30;;
24159;SDS011;62385;41.594;23.808;2024-02-28T01:48:28;0.20;;;0.10;;
24159;SDS011;62385;41.594;23.808;2024-02-28T01:50:55;0.20;;;0.07;;
24159;SDS011;62385;41.594;23.808;2024-02-28T01:53:21;0.97;;;0.30;;
24159;SDS011;62385;41.594;23.808;2024-02-28T01:55:47;0.20;;;0.10;;
24159;SDS011;62385;41.594;23.808;2024-02-28T01:58:12;0.40;;;0.20;;
24159;SDS011;62385;41.594;23.808;2024-02-28T02:00:38;0.20;;;0.00;;
24159;SDS011;62385;41.594;23.808;2024-02-28T02:03:05;1.00;;;0.77;;
24159;SDS011;62385;41.594;23.808;2024-02-28T02:05:31;0.30;;;0.30;;
24159;SDS011;62385;41.594;23.808;2024-02-28T02:07:56;0.20;;;0.20;;
24159;SDS011;62385;41.594;23.808;2024-02-28T02:10:23;1.67;;;0.93;;
24159;SDS011;62385;41.594;23.808;2024-02-28T02:12:50;1.83;;;0.60;;
24159;SDS011;62385;41.594;23.808;2024-02-28T02:15:16;0.20;;;0.10;;
24159;SDS011;62385;41.594;23.808;2024-02-28T02:17:42;0.70;;;0.70;;
24159;SDS011;62385;41.594;23.808;2024-02-28T02:20:09;0.50;;;0.33;;
24159;SDS011;62385;41.594;23.808;2024-02-28T02:22:37;3.03;;;0.40;;
24159;SDS011;62385;41.594;23.808;2024-02-28T02:25:06;0.20;;;0.10;;
24159;SDS011;62385;41.594;23.808;2024-02-28T02:27:32;0.30;;;0.20;;
24159;SDS011;62385;41.594;23.808;2024-02-28T02:29:57;0.47;;;0.47;;
24159;SDS011;62385;41.594;23.808;2024-02-28T02:32:23;0.20;;;0.10;;
24159;SDS011;62385;41.594;23.808;2024-02-28T02:34:49;0.80;;;0.70;;
24159;SDS011;62385;41.594;23.808;2024-02-28T02:37:14;0.93;;;0.67;;
24159;SDS011;62385;41.594;23.808;2024-02-28T02:39:40;0.20;;;0.00;;
24159;SDS011;62385;41.594;23.808;2024-02-28T02:42:06;0.30;;;0.20;;
24159;SDS011;62385;41.594;23.808;2024-02-28T02:44:31;0.83;;;0.70;;
24159;SDS011;62385;41.594;23.808;2024-02-28T02:46:57;0.20;;;0.10;;
24159;SDS011;62385;41.594;23.808;2024-02-28T02:49:22;0.70;;;0.40;;
24159;SDS011;62385;41.594;23.808;2024-02-28T02:51:48;0.23;;;0.20;;
24159;SDS011;62385;41.594;23.808;2024-02-28T02:54:14;0.47;;;0.33;;
24159;SDS011;62385;41.594;23.808;2024-02-28T02:56:42;0.43;;;0.30;;
24159;SDS011;62385;41.594;23.808;2024-02-28T02:59:09;1.47;;;0.73;;
24159;SDS011;62385;41.594;23.808;2024-02-28T03:01:36;0.70;;;0.63;;
24159;SDS011;62385;41.594;23.808;2024-02-28T03:04:01;1.80;;;0.30;;
24159;SDS011;62385;41.594;23.808;2024-02-28T03:06:27;1.20;;;0.87;;
24159;SDS011;62385;41.594;23.808;2024-02-28T03:08:53;0.20;;;0.10;;
24159;SDS011;62385;41.594;23.808;2024-02-28T03:11:18;0.20;;;0.20;;
24159;SDS011;62385;41.594;23.808;2024-02-28T03:13:44;0.57;;;0.57;;
24159;SDS011;62385;41.594;23.808;2024-02-28T03:16:09;0.40;;;0.40;;
24159;SDS011;62385;41.594;23.808;2024-02-28T03:18:35;0.53;;;0.53;;
24159;SDS011;62385;41.594;23.808;2024-02-28T03:21:00;0.40;;;0.30;;
24159;SDS011;62385;41.594;23.808;2024-02-28T03:23:27;0.50;;;0.37;;
24159;SDS011;62385;41.594;23.808;2024-02-28T03:25:52;0.23;;;0.23;;
24159;SDS011;62385;41.594;23.808;2024-02-28T03:28:18;0.77;;;0.77;;
24159;SDS011;62385;41.594;23.808;2024-02-28T03:30:44;2.93;;;0.73;;
24159;SDS011;62385;41.594;23.808;2024-02-28T03:33:09;0.33;;;0.30;;
24159;SDS011;62385;41.594;23.808;2024-02-28T03:35:35;0.20;;;0.00;;
24159;SDS011;62385;41.594;23.808;2024-02-28T03:38:00;0.27;;;0.23;;
24159;SDS011;62385;41.594;23.808;2024-02-28T03:40:26;1.10;;;0.97;;
24159;SDS011;62385;41.594;23.808;2024-02-28T03:42:52;0.47;;;0.27;;
24159;SDS011;62385;41.594;23.808;2024-02-28T03:45:17;2.33;;;0.90;;
24159;SDS011;62385;41.594;23.808;2024-02-28T03:47:45;0.73;;;0.73;;
24159;SDS011;62385;41.594;23.808;2024-02-28T03:50:10;0.53;;;0.40;;
24159;SDS011;62385;41.594;23.808;2024-02-28T03:52:36;1.33;;;1.23;;
24159;SDS011;62385;41.594;23.808;2024-02-28T03:55:01;12.83;;;2.00;;
24159;SDS011;62385;41.594;23.808;2024-02-28T03:57:28;1.13;;;0.30;;
24159;SDS011;62385;41.594;23.808;2024-02-28T03:59:53;0.30;;;0.23;;
24159;SDS011;62385;41.594;23.808;2024-02-28T04:02:19;1.63;;;0.63;;
24159;SDS011;62385;41.594;23.808;2024-02-28T04:04:45;0.63;;;0.27;;
24159;SDS011;62385;41.594;23.808;2024-02-28T04:07:10;0.77;;;0.77;;
24159;SDS011;62385;41.594;23.808;2024-02-28T04:09:36;0.33;;;0.33;;
24159;SDS011;62385;41.594;23.808;2024-02-28T04:12:01;3.80;;;0.67;;
24159;SDS011;62385;41.594;23.808;2024-02-28T04:14:28;0.40;;;0.40;;
24159;SDS011;62385;41.594;23.808;2024-02-28T04:16:53;1.47;;;0.80;;
24159;SDS011;62385;41.594;23.808;2024-02-28T04:19:19;0.70;;;0.67;;
24159;SDS011;62385;41.594;23.808;2024-02-28T04:21:44;0.50;;;0.43;;
24159;SDS011;62385;41.594;23.808;2024-02-28T04:24:10;5.50;;;0.97;;
24159;SDS011;62385;41.594;23.808;2024-02-28T04:26:36;0.60;;;0.60;;
24159;SDS011;62385;41.594;23.808;2024-02-28T04:29:01;0.30;;;0.30;;
24159;SDS011;62385;41.594;23.808;2024-02-28T04:31:30;1.07;;;0.83;;
24159;SDS011;62385;41.594;23.808;2024-02-28T04:33:56;0.60;;;0.60;;
24159;SDS011;62385;41.594;23.808;2024-02-28T04:36:22;1.33;;;1.10;;
24159;SDS011;62385;41.594;23.808;2024-02-28T04:38:47;5.13;;;3.40;;
24159;SDS011;62385;41.594;23.808;2024-02-28T04:41:13;0.77;;;0.70;;
24159;SDS011;62385;41.594;23.808;2024-02-28T04:43:39;0.50;;;0.50;;
24159;SDS011;62385;41.594;23.808;2024-02-28T04:46:05;0.30;;;0.30;;
24159;SDS011;62385;41.594;23.808;2024-02-28T04:48:30;1.80;;;0.50;;
24159;SDS011;62385;41.594;23.808;2024-02-28T04:50:56;0.40;;;0.30;;
24159;SDS011;62385;41.594;23.808;2024-02-28T04:53:22;0.43;;;0.43;;
24159;SDS011;62385;41.594;23.808;2024-02-28T04:55:47;0.80;;;0.80;;
24159;SDS011;62385;41.594;23.808;2024-02-28T04:58:13;6.07;;;1.17;;
24159;SDS011;62385;41.594;23.808;2024-02-28T05:00:39;0.60;;;0.60;;
24159;SDS011;62385;41.594;23.808;2024-02-28T05:03:04;3.40;;;1.80;;
24159;SDS011;62385;41.594;23.808;2024-02-28T05:05:30;2.80;;;1.93;;
24159;SDS011;62385;41.594;23.808;2024-02-28T05:07:55;4.27;;;2.23;;
24159;SDS011;62385;41.594;23.808;2024-02-28T05:10:21;2.80;;;0.83;;
24159;SDS011;62385;41.594;23.808;2024-02-28T05:12:46;5.00;;;2.97;;
24159;SDS011;62385;41.594;23.808;2024-02-28T05:15:12;12.40;;;6.30;;
24159;SDS011;62385;41.594;23.808;2024-02-28T05:17:38;7.13;;;4.00;;
24159;SDS011;62385;41.594;23.808;2024-02-28T05:20:03;3.20;;;2.50;;
24159;SDS011;62385;41.594;23.808;2024-02-28T05:22:29;6.83;;;3.63;;
24159;SDS011;62385;41.594;23.808;2024-02-28T05:24:55;5.40;;;2.10;;
24159;SDS011;62385;41.594;23.808;2024-02-28T05:27:21;2.77;;;1.43;;
24159;SDS011;62385;41.594;23.808;2024-02-28T05:29:47;2.20;;;1.77;;
24159;SDS011;62385;41.594;23.808;2024-02-28T05:32:13;4.93;;;0.87;;
24159;SDS011;62385;41.594;23.808;2024-02-28T05:34:38;1.03;;;0.97;;
24159;SDS011;62385;41.594;23.808;2024-02-28T05:37:04;0.30;;;0.30;;
24159;SDS011;62385;41.594;23.808;2024-02-28T05:39:29;1.37;;;1.27;;
24159;SDS011;62385;41.594;23.808;2024-02-28T05:41:56;2.37;;;1.33;;
24159;SDS011;62385;41.594;23.808;2024-02-28T05:44:22;1.73;;;1.23;;
24159;SDS011;62385;41.594;23.808;2024-02-28T05:46:49;2.03;;;1.33;;
24159;SDS011;62385;41.594;23.808;2024-02-28T05:49:14;3.07;;;1.07;;
24159;SDS011;62385;41.594;23.808;2024-02-28T05:51:40;28.97;;;3.90;;
24159;SDS011;62385;41.594;23.808;2024-02-28T05:54:05;1.33;;;0.83;;
24159;SDS011;62385;41.594;23.808;2024-02-28T05:56:31;2.67;;;1.47;;
24159;SDS011;62385;41.594;23.808;2024-02-28T05:58:57;2.13;;;1.77;;
24159;SDS011;62385;41.594;23.808;2024-02-28T06:01:22;2.07;;;1.33;;
24159;SDS011;62385;41.594;23.808;2024-02-28T06:03:48;2.53;;;2.33;;
24159;SDS011;62385;41.594;23.808;2024-02-28T06:06:14;5.23;;;2.80;;
24159;SDS011;62385;41.594;23.808;2024-02-28T06:08:40;4.27;;;2.43;;
24159;SDS011;62385;41.594;23.808;2024-02-28T06:11:06;2.50;;;1.43;;
24159;SDS011;62385;41.594;23.808;2024-02-28T06:13:32;3.77;;;2.83;;
24159;SDS011;62385;41.594;23.808;2024-02-28T06:15:58;2.57;;;2.37;;
24159;SDS011;62385;41.594;23.808;2024-02-28T06:18:25;1.77;;;1.67;;
24159;SDS011;62385;41.594;23.808;2024-02-28T06:20:58;3.83;;;2.77;;
24159;SDS011;62385;41.594;23.808;2024-02-28T06:23:24;1.90;;;1.80;;
24159;SDS011;62385;41.594;23.808;2024-02-28T06:25:50;3.10;;;2.53;;
24159;SDS011;62385;41.594;23.808;2024-02-28T06:28:16;1.53;;;1.00;;
24159;SDS011;62385;41.594;23.808;2024-02-28T06:30:45;7.20;;;1.30;;
24159;SDS011;62385;41.594;23.808;2024-02-28T06:33:13;6.37;;;4.53;;
24159;SDS011;62385;41.594;23.808;2024-02-28T06:35:39;5.60;;;2.63;;
24159;SDS011;62385;41.594;23.808;2024-02-28T06:38:05;3.60;;;2.97;;
24159;SDS011;62385;41.594;23.808;2024-02-28T06:40:32;19.37;;;3.10;;
24159;SDS011;62385;41.594;23.808;2024-02-28T06:42:59;2.27;;;1.73;;
24159;SDS011;62385;41.594;23.808;2024-02-28T06:45:25;7.43;;;4.50;;
24159;SDS011;62385;41.594;23.808;2024-02-28T06:47:51;3.53;;;2.07;;
24159;SDS011;62385;41.594;23.808;2024-02-28T06:50:16;7.47;;;3.63;;
24159;SDS011;62385;41.594;23.808;2024-02-28T06:52:42;5.97;;;3.13;;
24159;SDS011;62385;41.594;23.808;2024-02-28T06:55:07;2.30;;;2.20;;
24159;SDS011;62385;41.594;23.808;2024-02-28T06:57:39;2.63;;;2.13;;
24159;SDS011;62385;41.594;23.808;2024-02-28T07:00:08;3.50;;;3.20;;
24159;SDS011;62385;41.594;23.808;2024-02-28T07:02:35;4.93;;;2.83;;
24159;SDS011;62385;41.594;23.808;2024-02-28T07:05:01;3.37;;;2.33;;
24159;SDS011;62385;41.594;23.808;2024-02-28T07:07:29;1.70;;;1.57;;
24159;SDS011;62385;41.594;23.808;2024-02-28T07:09:58;1.37;;;1.27;;
24159;SDS011;62385;41.594;23.808;2024-02-28T07:12:24;3.17;;;1.37;;
24159;SDS011;62385;41.594;23.808;2024-02-28T07:14:52;3.90;;;1.63;;
24159;SDS011;62385;41.594;23.808;2024-02-28T07:17:18;2.93;;;2.60;;
24159;SDS011;62385;41.594;23.808;2024-02-28T07:19:43;2.20;;;1.73;;
24159;SDS011;62385;41.594;23.808;2024-02-28T07:22:09;1.23;;;1.13;;
24159;SDS011;62385;41.594;23.808;2024-02-28T07:24:34;2.07;;;1.87;;
24159;SDS011;62385;41.594;23.808;2024-02-28T07:27:00;3.30;;;2.13;;
24159;SDS011;62385;41.594;23.808;2024-02-28T07:29:25;4.33;;;2.03;;
24159;SDS011;62385;41.594;23.808;2024-02-28T07:31:51;1.27;;;0.67;;
24159;SDS011;62385;41.594;23.808;2024-02-28T07:34:16;1.50;;;1.40;;
24159;SDS011;62385;41.594;23.808;2024-02-28T07:36:42;2.03;;;1.40;;
24159;SDS011;62385;41.594;23.808;2024-02-28T07:39:07;1.47;;;1.20;;
24159;SDS011;62385;41.594;23.808;2024-02-28T07:41:38;3.03;;;2.70;;
24159;SDS011;62385;41.594;23.808;2024-02-28T07:44:04;4.27;;;3.17;;
24159;SDS011;62385;41.594;23.808;2024-02-28T07:46:30;4.37;;;2.47;;
24159;SDS011;62385;41.594;23.808;2024-02-28T07:48:55;4.07;;;3.17;;
24159;SDS011;62385;41.594;23.808;2024-02-28T07:51:21;5.67;;;5.17;;
24159;SDS011;62385;41.594;23.808;2024-02-28T07:53:47;8.07;;;6.03;;
24159;SDS011;62385;41.594;23.808;2024-02-28T07:56:16;6.17;;;4.80;;
24159;SDS011;62385;41.594;23.808;2024-02-28T07:58:43;3.67;;;2.97;;
24159;SDS011;62385;41.594;23.808;2024-02-28T08:01:08;1.50;;;1.37;;
24159;SDS011;62385;41.594;23.808;2024-02-28T08:03:34;1.00;;;0.93;;
24159;SDS011;62385;41.594;23.808;2024-02-28T08:05:59;0.60;;;0.60;;
24159;SDS011;62385;41.594;23.808;2024-02-28T08:08:25;1.13;;;0.82;;
24159;SDS011;62385;41.594;23.808;2024-02-28T08:10:50;1.27;;;1.17;;
24159;SDS011;62385;41.594;23.808;2024-02-28T08:13:18;2.60;;;1.17;;
24159;SDS011;62385;41.594;23.808;2024-02-28T08:15:44;1.67;;;1.00;;
24159;SDS011;62385;41.594;23.808;2024-02-28T08:18:09;0.90;;;0.85;;
24159;SDS011;62385;41.594;23.808;2024-02-28T08:20:38;1.33;;;0.53;;
24159;SDS011;62385;41.594;23.808;2024-02-28T08:23:04;1.63;;;1.15;;
24159;SDS011;62385;41.594;23.808;2024-02-28T08:25:30;4.45;;;2.55;;
24159;SDS011;62385;41.594;23.808;2024-02-28T08:27:56;4.87;;;2.83;;
24159;SDS011;62385;41.594;23.808;2024-02-28T08:30:21;5.03;;;2.73;;
24159;SDS011;62385;41.594;23.808;2024-02-28T08:32:47;17.57;;;11.77;;
24159;SDS011;62385;41.594;23.808;2024-02-28T08:35:13;6.30;;;5.63;;
24159;SDS011;62385;41.594;23.808;2024-02-28T08:37:39;4.05;;;3.08;;
24159;SDS011;62385;41.594;23.808;2024-02-28T08:40:06;3.33;;;2.95;;
24159;SDS011;62385;41.594;23.808;2024-02-28T08:42:32;8.07;;;4.05;;
24159;SDS011;62385;41.594;23.808;2024-02-28T08:44:58;5.25;;;4.57;;
24159;SDS011;62385;41.594;23.808;2024-02-28T08:47:25;10.63;;;5.93;;
24159;SDS011;62385;41.594;23.808;2024-02-28T08:49:51;7.05;;;5.50;;
24159;SDS011;62385;41.594;23.808;2024-02-28T08:52:17;7.65;;;4.40;;
24159;SDS011;62385;41.594;23.808;2024-02-28T08:54:43;5.25;;;1.80;;
24159;SDS011;62385;41.594;23.808;2024-02-28T08:57:08;6.70;;;2.63;;
24159;SDS011;62385;41.594;23.808;2024-02-28T08:59:34;3.72;;;2.40;;
24159;SDS011;62385;41.594;23.808;2024-02-28T09:01:59;1.02;;;0.82;;
24159;SDS011;62385;41.594;23.808;2024-02-28T09:11:30;0.77;;;0.77;;
24159;SDS011;62385;41.594;23.808;2024-02-28T09:13:56;1.75;;;1.35;;
24159;SDS011;62385;41.594;23.808;2024-02-28T09:16:21;10.65;;;5.00;;
24159;SDS011;62385;41.594;23.808;2024-02-28T09:18:47;1.27;;;1.17;;
24159;SDS011;62385;41.594;23.808;2024-02-28T09:21:12;2.28;;;0.75;;
24159;SDS011;62385;41.594;23.808;2024-02-28T09:23:38;1.63;;;1.33;;
24159;SDS011;62385;41.594;23.808;2024-02-28T09:26:04;9.35;;;1.85;;
24159;SDS011;62385;41.594;23.808;2024-02-28T09:28:30;7.00;;;3.75;;
24159;SDS011;62385;41.594;23.808;2024-02-28T09:30:56;6.60;;;2.40;;
24159;SDS011;62385;41.594;23.808;2024-02-28T09:33:22;1.00;;;0.93;;
24159;SDS011;62385;41.594;23.808;2024-02-28T09:35:48;1.35;;;1.02;;
24159;SDS011;62385;41.594;23.808;2024-02-28T09:38:13;6.00;;;3.58;;
24159;SDS011;62385;41.594;23.808;2024-02-28T09:40:39;3.47;;;2.03;;
24159;SDS011;62385;41.594;23.808;2024-02-28T09:43:05;1.25;;;0.75;;
24159;SDS011;62385;41.594;23.808;2024-02-28T09:45:33;0.45;;;0.45;;
24159;SDS011;62385;41.594;23.808;2024-02-28T09:48:00;0.88;;;0.75;;
24159;SDS011;62385;41.594;23.808;2024-02-28T09:50:26;3.63;;;2.80;;
24159;SDS011;62385;41.594;23.808;2024-02-28T09:52:52;3.33;;;1.85;;
24159;SDS011;62385;41.594;23.808;2024-02-28T09:55:19;1.10;;;0.88;;
24159;SDS011;62385;41.594;23.808;2024-02-28T09:57:46;1.67;;;0.70;;
24159;SDS011;62385;41.594;23.808;2024-02-28T10:00:13;0.60;;;0.45;;
24159;SDS011;62385;41.594;23.808;2024-02-28T10:02:41;1.52;;;0.85;;
24159;SDS011;62385;41.594;23.808;2024-02-28T10:05:10;0.80;;;0.80;;
24159;SDS011;62385;41.594;23.808;2024-02-28T10:07:35;0.52;;;0.52;;
24159;SDS011;62385;41.594;23.808;2024-02-28T10:10:01;2.25;;;1.83;;
24159;SDS011;62385;41.594;23.808;2024-02-28T10:12:27;1.10;;;0.98;;
24159;SDS011;62385;41.594;23.808;2024-02-28T10:14:52;1.30;;;1.20;;
24159;SDS011;62385;41.594;23.808;2024-02-28T10:17:18;1.75;;;1.15;;
24159;SDS011;62385;41.594;23.808;2024-02-28T10:19:43;1.88;;;1.65;;
24159;SDS011;62385;41.594;23.808;2024-02-28T10:22:09;2.30;;;1.88;;
24159;SDS011;62385;41.594;23.808;2024-02-28T10:24:34;1.00;;;0.60;;
24159;SDS011;62385;41.594;23.808;2024-02-28T10:27:02;3.30;;;0.85;;
24159;SDS011;62385;41.594;23.808;2024-02-28T10:29:28;0.38;;;0.38;;
24159;SDS011;62385;41.594;23.808;2024-02-28T10:31:58;1.30;;;1.20;;
24159;SDS011;62385;41.594;23.808;2024-02-28T10:34:25;6.53;;;1.70;;
24159;SDS011;62385;41.594;23.808;2024-02-28T10:36:50;1.17;;;0.85;;
24159;SDS011;62385;41.594;23.808;2024-02-28T10:39:16;3.55;;;1.65;;
24159;SDS011;62385;41.594;23.808;2024-02-28T10:41:43;3.40;;;1.08;;
24159;SDS011;62385;41.594;23.808;2024-02-28T10:44:12;0.60;;;0.50;;
24159;SDS011;62385;41.594;23.808;2024-02-28T10:46:38;6.20;;;1.55;;
24159;SDS011;62385;41.594;23.808;2024-02-28T10:49:04;0.95;;;0.60;;
24159;SDS011;62385;41.594;23.808;2024-02-28T10:51:31;0.82;;;0.52;;
24159;SDS011;62385;41.594;23.808;2024-02-28T10:54:11;1.20;;;0.80;;
24159;SDS011;62385;41.594;23.808;2024-02-28T10:56:37;11.65;;;5.57;;
24159;SDS011;62385;41.594;23.808;2024-02-28T10:59:05;3.00;;;2.70;;
24159;SDS011;62385;41.594;23.808;2024-02-28T11:01:33;1.63;;;1.52;;
24159;SDS011;62385;41.594;23.808;2024-02-28T11:04:01;1.45;;;0.90;;
24159;SDS011;62385;41.594;23.808;2024-02-28T11:06:28;2.28;;;2.08;;
24159;SDS011;62385;41.594;23.808;2024-02-28T11:08:55;3.47;;;3.05;;
24159;SDS011;62385;41.594;23.808;2024-02-28T11:11:21;6.50;;;2.50;;
24159;SDS011;62385;41.594;23.808;2024-02-28T11:13:57;1.65;;;1.52;;
24159;SDS011;62385;41.594;23.808;2024-02-28T11:16:32;0.77;;;0.65;;
24159;SDS011;62385;41.594;23.808;2024-02-28T11:18:59;0.90;;;0.90;;
24159;SDS011;62385;41.594;23.808;2024-02-28T11:21:26;1.23;;;0.88;;
24159;SDS011;62385;41.594;23.808;2024-02-28T11:23:57;1.15;;;0.85;;
24159;SDS011;62385;41.594;23.808;2024-02-28T11:26:23;2.58;;;1.35;;
24159;SDS011;62385;41.594;23.808;2024-02-28T11:28:49;2.05;;;1.05;;
24159;SDS011;62385;41.594;23.808;2024-02-28T11:31:15;9.68;;;1.42;;
24159;SDS011;62385;41.594;23.808;2024-02-28T11:33:41;1.00;;;0.90;;
24159;SDS011;62385;41.594;23.808;2024-02-28T11:36:07;2.65;;;1.55;;
24159;SDS011;62385;41.594;23.808;2024-02-28T11:38:36;0.32;;;0.32;;
24159;SDS011;62385;41.594;23.808;2024-02-28T11:41:03;0.70;;;0.52;;
24159;SDS011;62385;41.594;23.808;2024-02-28T11:43:32;0.80;;;0.63;;
24159;SDS011;62385;41.594;23.808;2024-02-28T11:46:07;2.38;;;1.50;;
24159;SDS011;62385;41.594;23.808;2024-02-28T11:48:34;0.50;;;0.50;;
24159;SDS011;62385;41.594;23.808;2024-02-28T11:51:00;1.75;;;0.90;;
24159;SDS011;62385;41.594;23.808;2024-02-28T11:53:25;1.42;;;0.77;;
24159;SDS011;62385;41.594;23.808;2024-02-28T11:55:54;1.60;;;1.33;;
24159;SDS011;62385;41.594;23.808;2024-02-28T11:58:21;4.00;;;0.80;;
24159;SDS011;62385;41.594;23.808;2024-02-28T12:00:47;2.58;;;1.02;;
24159;SDS011;62385;41.594;23.808;2024-02-28T12:03:13;7.55;;;2.03;;
24159;SDS011;62385;41.594;23.808;2024-02-28T12:05:40;3.10;;;1.83;;
24159;SDS011;62385;41.594;23.808;2024-02-28T12:08:08;0.35;;;0.35;;
24159;SDS011;62385;41.594;23.808;2024-02-28T12:10:34;1.10;;;1.00;;
24159;SDS011;62385;41.594;23.808;2024-02-28T12:13:00;0.45;;;0.45;;
24159;SDS011;62385;41.594;23.808;2024-02-28T12:15:28;2.20;;;1.13;;
24159;SDS011;62385;41.594;23.808;2024-02-28T12:17:54;0.65;;;0.50;;
24159;SDS011;62385;41.594;23.808;2024-02-28T12:20:20;0.88;;;0.75;;
24159;SDS011;62385;41.594;23.808;2024-02-28T12:22:45;2.58;;;1.02;;
24159;SDS011;62385;41.594;23.808;2024-02-28T12:25:11;2.53;;;1.17;;
24159;SDS011;62385;41.594;23.808;2024-02-28T12:27:36;0.90;;;0.57;;
24159;SDS011;62385;41.594;23.808;2024-02-28T12:30:02;2.30;;;1.65;;
24159;SDS011;62385;41.594;23.808;2024-02-28T12:32:28;0.90;;;0.82;;
24159;SDS011;62385;41.594;23.808;2024-02-28T12:34:53;1.27;;;0.30;;
24159;SDS011;62385;41.594;23.808;2024-02-28T12:37:19;0.63;;;0.63;;
24159;SDS011;62385;41.594;23.808;2024-02-28T12:39:44;3.47;;;0.50;;
24159;SDS011;62385;41.594;23.808;2024-02-28T12:42:12;0.80;;;0.52;;
24159;SDS011;62385;41.594;23.808;2024-02-28T12:44:38;0.60;;;0.47;;
24159;SDS011;62385;41.594;23.808;2024-02-28T12:47:06;1.33;;;0.75;;
24159;SDS011;62385;41.594;23.808;2024-02-28T12:49:31;1.40;;;0.50;;
24159;SDS011;62385;41.594;23.808;2024-02-28T12:51:57;1.10;;;0.88;;
24159;SDS011;62385;41.594;23.808;2024-02-28T12:54:22;0.40;;;0.35;;
24159;SDS011;62385;41.594;23.808;2024-02-28T12:56:48;0.45;;;0.30;;
24159;SDS011;62385;41.594;23.808;2024-02-28T12:59:14;1.65;;;0.77;;
24159;SDS011;62385;41.594;23.808;2024-02-28T13:01:40;0.77;;;0.30;;
24159;SDS011;62385;41.594;23.808;2024-02-28T13:04:06;0.68;;;0.50;;
24159;SDS011;62385;41.594;23.808;2024-02-28T13:06:32;0.95;;;0.90;;
24159;SDS011;62385;41.594;23.808;2024-02-28T13:08:57;0.85;;;0.60;;
24159;SDS011;62385;41.594;23.808;2024-02-28T13:11:23;0.30;;;0.30;;
24159;SDS011;62385;41.594;23.808;2024-02-28T13:13:50;0.68;;;0.57;;
24159;SDS011;62385;41.594;23.808;2024-02-28T13:16:17;5.97;;;1.90;;
24159;SDS011;62385;41.594;23.808;2024-02-28T13:18:43;1.20;;;1.10;;
24159;SDS011;62385;41.594;23.808;2024-02-28T13:21:12;2.15;;;1.70;;
24159;SDS011;62385;41.594;23.808;2024-02-28T13:23:37;1.13;;;0.98;;
24159;SDS011;62385;41.594;23.808;2024-02-28T13:26:03;4.13;;;1.63;;
24159;SDS011;62385;41.594;23.808;2024-02-28T13:28:30;0.32;;;0.28;;
24159;SDS011;62385;41.594;23.808;2024-02-28T13:30:57;0.20;;;0.20;;
24159;SDS011;62385;41.594;23.808;2024-02-28T13:33:26;0.30;;;0.30;;
24159;SDS011;62385;41.594;23.808;2024-02-28T13:35:52;1.27;;;1.20;;
24159;SDS011;62385;41.594;23.808;2024-02-28T13:38:19;1.10;;;0.93;;
24159;SDS011;62385;41.594;23.808;2024-02-28T13:40:45;1.52;;;1.00;;
24159;SDS011;62385;41.594;23.808;2024-02-28T13:43:11;0.63;;;0.63;;
24159;SDS011;62385;41.594;23.808;2024-02-28T13:45:40;1.75;;;1.05;;
24159;SDS011;62385;41.594;23.808;2024-02-28T13:48:15;0.63;;;0.38;;
24159;SDS011;62385;41.594;23.808;2024-02-28T13:50:43;0.63;;;0.63;;
24159;SDS011;62385;41.594;23.808;2024-02-28T13:53:09;3.70;;;0.85;;
24159;SDS011;62385;41.594;23.808;2024-02-28T13:55:34;1.20;;;0.73;;
24159;SDS011;62385;41.594;23.808;2024-02-28T13:58:00;0.75;;;0.20;;
24159;SDS011;62385;41.594;23.808;2024-02-28T14:00:26;2.53;;;0.77;;
24159;SDS011;62385;41.594;23.808;2024-02-28T14:02:51;1.58;;;0.77;;
24159;SDS011;62385;41.594;23.808;2024-02-28T14:05:17;1.10;;;0.95;;
24159;SDS011;62385;41.594;23.808;2024-02-28T14:07:42;0.98;;;0.98;;
24159;SDS011;62385;41.594;23.808;2024-02-28T14:10:08;0.40;;;0.40;;
24159;SDS011;62385;41.594;23.808;2024-02-28T14:12:36;1.65;;;1.10;;
24159;SDS011;62385;41.594;23.808;2024-02-28T14:15:03;0.32;;;0.32;;
24159;SDS011;62385;41.594;23.808;2024-02-28T14:17:29;0.88;;;0.60;;
24159;SDS011;62385;41.594;23.808;2024-02-28T14:19:56;0.85;;;0.38;;
24159;SDS011;62385;41.594;23.808;2024-02-28T14:22:21;0.52;;;0.50;;
24159;SDS011;62385;41.594;23.808;2024-02-28T14:24:46;0.63;;;0.63;;
24159;SDS011;62385;41.594;23.808;2024-02-28T14:27:12;1.25;;;0.75;;
24159;SDS011;62385;41.594;23.808;2024-02-28T14:29:38;0.73;;;0.47;;
24159;SDS011;62385;41.594;23.808;2024-02-28T14:32:03;0.22;;;0.22;;
24159;SDS011;62385;41.594;23.808;2024-02-28T14:34:32;0.20;;;0.10;;